sensor_id;sensor_type;location;lat;lon;timestamp;P1;durP1;ratioP1;P2;durP2;ratioP2
56255;SDS011;57229;51.432;-2.598;2023-12-22T00:01:13;13.82;;;2.50;;
56255;SDS011;57229;51.432;-2.598;2023-12-22T00:03:42;9.25;;;2.03;;
56255;SDS011;57229;51.432;-2.598;2023-12-22T00:06:08;12.45;;;2.50;;
56255;SDS011;57229;51.432;-2.598;2023-12-22T00:08:33;9.38;;;2.03;;
56255;SDS011;57229;51.432;-2.598;2023-12-22T00:10:59;5.72;;;1.80;;
56255;SDS011;57229;51.432;-2.598;2023-12-22T00:13:25;13.05;;;2.33;;
56255;SDS011;57229;51.432;-2.598;2023-12-22T00:15:50;10.63;;;2.28;;
56255;SDS011;57229;51.432;-2.598;2023-12-22T00:18:16;11.18;;;2.42;;
56255;SDS011;57229;51.432;-2.598;2023-12-22T00:20:41;6.68;;;1.85;;
56255;SDS011;57229;51.432;-2.598;2023-12-22T00:23:07;8.63;;;1.88;;
56255;SDS011;57229;51.432;-2.598;2023-12-22T00:25:32;9.30;;;2.85;;
56255;SDS011;57229;51.432;-2.598;2023-12-22T00:27:58;8.98;;;2.10;;
56255;SDS011;57229;51.432;-2.598;2023-12-22T00:30:24;7.47;;;1.75;;
56255;SDS011;57229;51.432;-2.598;2023-12-22T00:32:49;14.75;;;2.55;;
56255;SDS011;57229;51.432;-2.598;2023-12-22T00:35:15;7.10;;;1.88;;
56255;SDS011;57229;51.432;-2.598;2023-12-22T00:37:41;12.02;;;2.38;;
56255;SDS011;57229;51.432;-2.598;2023-12-22T00:40:07;13.15;;;2.50;;
56255;SDS011;57229;51.432;-2.598;2023-12-22T00:42:34;12.20;;;2.42;;
56255;SDS011;57229;51.432;-2.598;2023-12-22T00:45:00;13.82;;;2.72;;
56255;SDS011;57229;51.432;-2.598;2023-12-22T00:47:26;11.30;;;2.33;;
56255;SDS011;57229;51.432;-2.598;2023-12-22T00:49:51;15.10;;;2.78;;
56255;SDS011;57229;51.432;-2.598;2023-12-22T00:52:17;11.90;;;2.20;;
56255;SDS011;57229;51.432;-2.598;2023-12-22T00:54:42;12.02;;;1.98;;
56255;SDS011;57229;51.432;-2.598;2023-12-22T00:57:08;9.07;;;1.63;;
56255;SDS011;57229;51.432;-2.598;2023-12-22T00:59:34;10.57;;;2.47;;
56255;SDS011;57229;51.432;-2.598;2023-12-22T01:01:59;16.98;;;2.75;;
56255;SDS011;57229;51.432;-2.598;2023-12-22T01:04:25;14.77;;;2.47;;
56255;SDS011;57229;51.432;-2.598;2023-12-22T01:06:50;12.73;;;2.35;;
56255;SDS011;57229;51.432;-2.598;2023-12-22T01:09:18;10.43;;;2.70;;
56255;SDS011;57229;51.432;-2.598;2023-12-22T01:11:44;7.47;;;2.40;;
56255;SDS011;57229;51.432;-2.598;2023-12-22T01:14:10;13.63;;;2.72;;
56255;SDS011;57229;51.432;-2.598;2023-12-22T01:16:38;15.52;;;2.60;;
56255;SDS011;57229;51.432;-2.598;2023-12-22T01:19:04;15.60;;;2.65;;
56255;SDS011;57229;51.432;-2.598;2023-12-22T01:21:30;12.90;;;2.60;;
56255;SDS011;57229;51.432;-2.598;2023-12-22T01:23:55;7.53;;;2.22;;
56255;SDS011;57229;51.432;-2.598;2023-12-22T01:26:21;8.68;;;2.25;;
56255;SDS011;57229;51.432;-2.598;2023-12-22T01:28:46;16.45;;;2.70;;
56255;SDS011;57229;51.432;-2.598;2023-12-22T01:31:12;10.60;;;2.10;;
56255;SDS011;57229;51.432;-2.598;2023-12-22T01:33:38;14.88;;;2.53;;
56255;SDS011;57229;51.432;-2.598;2023-12-22T01:36:03;8.88;;;2.60;;
56255;SDS011;57229;51.432;-2.598;2023-12-22T01:38:29;11.57;;;3.00;;
56255;SDS011;57229;51.432;-2.598;2023-12-22T01:40:55;13.55;;;2.85;;
56255;SDS011;57229;51.432;-2.598;2023-12-22T01:43:20;10.05;;;2.50;;
56255;SDS011;57229;51.432;-2.598;2023-12-22T01:45:56;9.98;;;2.38;;
56255;SDS011;57229;51.432;-2.598;2023-12-22T01:48:24;13.93;;;2.83;;
56255;SDS011;57229;51.432;-2.598;2023-12-22T01:50:50;10.15;;;2.53;;
56255;SDS011;57229;51.432;-2.598;2023-12-22T01:53:17;6.13;;;1.83;;
56255;SDS011;57229;51.432;-2.598;2023-12-22T01:55:45;10.73;;;1.90;;
56255;SDS011;57229;51.432;-2.598;2023-12-22T01:58:13;7.20;;;2.45;;
56255;SDS011;57229;51.432;-2.598;2023-12-22T02:00:39;12.65;;;2.75;;
56255;SDS011;57229;51.432;-2.598;2023-12-22T02:03:05;10.45;;;2.08;;
56255;SDS011;57229;51.432;-2.598;2023-12-22T02:05:31;5.75;;;1.90;;
56255;SDS011;57229;51.432;-2.598;2023-12-22T02:07:57;7.57;;;2.63;;
56255;SDS011;57229;51.432;-2.598;2023-12-22T02:10:22;10.93;;;2.22;;
56255;SDS011;57229;51.432;-2.598;2023-12-22T02:12:48;17.38;;;2.42;;
56255;SDS011;57229;51.432;-2.598;2023-12-22T02:15:14;11.32;;;2.85;;
56255;SDS011;57229;51.432;-2.598;2023-12-22T02:17:43;12.35;;;2.10;;
56255;SDS011;57229;51.432;-2.598;2023-12-22T02:20:10;9.70;;;2.20;;
56255;SDS011;57229;51.432;-2.598;2023-12-22T02:22:36;6.93;;;1.98;;
56255;SDS011;57229;51.432;-2.598;2023-12-22T02:25:02;14.25;;;1.80;;
56255;SDS011;57229;51.432;-2.598;2023-12-22T02:27:31;8.93;;;1.80;;
56255;SDS011;57229;51.432;-2.598;2023-12-22T02:30:11;10.55;;;2.15;;
56255;SDS011;57229;51.432;-2.598;2023-12-22T02:32:41;9.15;;;1.92;;
56255;SDS011;57229;51.432;-2.598;2023-12-22T02:35:10;6.00;;;2.47;;
56255;SDS011;57229;51.432;-2.598;2023-12-22T02:37:39;11.77;;;2.25;;
56255;SDS011;57229;51.432;-2.598;2023-12-22T02:40:06;6.22;;;1.88;;
56255;SDS011;57229;51.432;-2.598;2023-12-22T02:42:34;10.02;;;2.20;;
56255;SDS011;57229;51.432;-2.598;2023-12-22T02:45:00;10.30;;;2.25;;
56255;SDS011;57229;51.432;-2.598;2023-12-22T02:47:26;10.93;;;2.33;;
56255;SDS011;57229;51.432;-2.598;2023-12-22T02:49:53;12.70;;;2.08;;
56255;SDS011;57229;51.432;-2.598;2023-12-22T02:52:19;9.85;;;2.63;;
56255;SDS011;57229;51.432;-2.598;2023-12-22T02:54:44;12.52;;;2.53;;
56255;SDS011;57229;51.432;-2.598;2023-12-22T02:57:12;9.15;;;2.03;;
56255;SDS011;57229;51.432;-2.598;2023-12-22T02:59:38;15.13;;;2.38;;
56255;SDS011;57229;51.432;-2.598;2023-12-22T03:02:04;11.00;;;2.60;;
56255;SDS011;57229;51.432;-2.598;2023-12-22T03:04:29;5.50;;;1.80;;
56255;SDS011;57229;51.432;-2.598;2023-12-22T03:06:55;8.10;;;2.25;;
56255;SDS011;57229;51.432;-2.598;2023-12-22T03:09:21;8.73;;;2.20;;
56255;SDS011;57229;51.432;-2.598;2023-12-22T03:11:47;8.75;;;2.20;;
56255;SDS011;57229;51.432;-2.598;2023-12-22T03:14:13;9.77;;;2.03;;
56255;SDS011;57229;51.432;-2.598;2023-12-22T03:16:39;11.80;;;2.60;;
56255;SDS011;57229;51.432;-2.598;2023-12-22T03:19:06;5.13;;;1.70;;
56255;SDS011;57229;51.432;-2.598;2023-12-22T03:21:32;19.88;;;2.35;;
56255;SDS011;57229;51.432;-2.598;2023-12-22T03:23:57;9.43;;;2.33;;
56255;SDS011;57229;51.432;-2.598;2023-12-22T03:26:23;11.15;;;1.95;;
56255;SDS011;57229;51.432;-2.598;2023-12-22T03:28:51;7.68;;;2.00;;
56255;SDS011;57229;51.432;-2.598;2023-12-22T03:31:16;5.13;;;1.33;;
56255;SDS011;57229;51.432;-2.598;2023-12-22T03:33:42;10.85;;;2.10;;
56255;SDS011;57229;51.432;-2.598;2023-12-22T03:36:07;9.50;;;2.13;;
56255;SDS011;57229;51.432;-2.598;2023-12-22T03:38:33;12.75;;;2.65;;
56255;SDS011;57229;51.432;-2.598;2023-12-22T03:40:59;7.75;;;1.92;;
56255;SDS011;57229;51.432;-2.598;2023-12-22T03:43:24;7.95;;;2.10;;
56255;SDS011;57229;51.432;-2.598;2023-12-22T03:45:50;6.05;;;1.67;;
56255;SDS011;57229;51.432;-2.598;2023-12-22T03:48:16;7.50;;;2.00;;
56255;SDS011;57229;51.432;-2.598;2023-12-22T03:50:51;7.85;;;1.80;;
56255;SDS011;57229;51.432;-2.598;2023-12-22T03:53:24;11.98;;;2.25;;
56255;SDS011;57229;51.432;-2.598;2023-12-22T03:56:23;11.45;;;2.42;;
56255;SDS011;57229;51.432;-2.598;2023-12-22T03:58:57;7.05;;;1.75;;
56255;SDS011;57229;51.432;-2.598;2023-12-22T04:01:23;7.93;;;1.90;;
56255;SDS011;57229;51.432;-2.598;2023-12-22T04:03:49;9.77;;;1.85;;
56255;SDS011;57229;51.432;-2.598;2023-12-22T04:06:14;8.20;;;2.05;;
56255;SDS011;57229;51.432;-2.598;2023-12-22T04:08:41;3.47;;;1.40;;
56255;SDS011;57229;51.432;-2.598;2023-12-22T04:11:06;7.30;;;1.90;;
56255;SDS011;57229;51.432;-2.598;2023-12-22T04:13:32;5.68;;;1.45;;
56255;SDS011;57229;51.432;-2.598;2023-12-22T04:15:58;10.75;;;1.85;;
56255;SDS011;57229;51.432;-2.598;2023-12-22T04:18:23;5.57;;;1.70;;
56255;SDS011;57229;51.432;-2.598;2023-12-22T04:20:49;2.45;;;1.05;;
56255;SDS011;57229;51.432;-2.598;2023-12-22T04:23:18;6.50;;;1.67;;
56255;SDS011;57229;51.432;-2.598;2023-12-22T04:25:44;9.25;;;1.90;;
56255;SDS011;57229;51.432;-2.598;2023-12-22T04:28:09;10.95;;;1.25;;
56255;SDS011;57229;51.432;-2.598;2023-12-22T04:30:35;8.05;;;1.63;;
56255;SDS011;57229;51.432;-2.598;2023-12-22T04:33:01;7.10;;;1.40;;
56255;SDS011;57229;51.432;-2.598;2023-12-22T04:35:26;7.95;;;1.42;;
56255;SDS011;57229;51.432;-2.598;2023-12-22T04:37:52;5.03;;;1.50;;
56255;SDS011;57229;51.432;-2.598;2023-12-22T04:40:17;4.55;;;1.20;;
56255;SDS011;57229;51.432;-2.598;2023-12-22T04:42:43;7.82;;;1.75;;
56255;SDS011;57229;51.432;-2.598;2023-12-22T04:45:08;3.30;;;1.02;;
56255;SDS011;57229;51.432;-2.598;2023-12-22T04:47:34;6.47;;;1.50;;
56255;SDS011;57229;51.432;-2.598;2023-12-22T04:50:00;11.15;;;1.65;;
56255;SDS011;57229;51.432;-2.598;2023-12-22T04:52:25;9.30;;;2.20;;
56255;SDS011;57229;51.432;-2.598;2023-12-22T04:54:51;8.82;;;1.90;;
56255;SDS011;57229;51.432;-2.598;2023-12-22T04:57:16;14.75;;;1.98;;
56255;SDS011;57229;51.432;-2.598;2023-12-22T04:59:42;9.00;;;1.83;;
56255;SDS011;57229;51.432;-2.598;2023-12-22T05:02:07;5.38;;;1.75;;
56255;SDS011;57229;51.432;-2.598;2023-12-22T05:04:33;9.88;;;2.00;;
56255;SDS011;57229;51.432;-2.598;2023-12-22T05:06:58;9.82;;;1.88;;
56255;SDS011;57229;51.432;-2.598;2023-12-22T05:09:24;10.02;;;2.25;;
56255;SDS011;57229;51.432;-2.598;2023-12-22T05:11:50;11.02;;;1.90;;
56255;SDS011;57229;51.432;-2.598;2023-12-22T05:14:16;12.57;;;2.33;;
56255;SDS011;57229;51.432;-2.598;2023-12-22T05:16:41;10.45;;;2.20;;
56255;SDS011;57229;51.432;-2.598;2023-12-22T05:19:10;9.77;;;2.40;;
56255;SDS011;57229;51.432;-2.598;2023-12-22T05:24:57;10.52;;;2.17;;
56255;SDS011;57229;51.432;-2.598;2023-12-22T05:27:23;12.48;;;2.47;;
56255;SDS011;57229;51.432;-2.598;2023-12-22T05:29:49;13.05;;;2.33;;
56255;SDS011;57229;51.432;-2.598;2023-12-22T05:32:15;9.80;;;2.50;;
56255;SDS011;57229;51.432;-2.598;2023-12-22T05:34:41;7.70;;;1.50;;
56255;SDS011;57229;51.432;-2.598;2023-12-22T05:37:13;9.77;;;1.63;;
56255;SDS011;57229;51.432;-2.598;2023-12-22T05:39:39;6.22;;;1.60;;
56255;SDS011;57229;51.432;-2.598;2023-12-22T05:42:27;9.57;;;1.50;;
56255;SDS011;57229;51.432;-2.598;2023-12-22T05:44:53;8.73;;;1.90;;
56255;SDS011;57229;51.432;-2.598;2023-12-22T05:47:19;13.05;;;2.13;;
56255;SDS011;57229;51.432;-2.598;2023-12-22T05:49:44;11.98;;;1.95;;
56255;SDS011;57229;51.432;-2.598;2023-12-22T05:52:11;11.70;;;2.00;;
56255;SDS011;57229;51.432;-2.598;2023-12-22T05:54:37;8.75;;;2.03;;
56255;SDS011;57229;51.432;-2.598;2023-12-22T05:57:04;8.93;;;1.88;;
56255;SDS011;57229;51.432;-2.598;2023-12-22T05:59:53;14.65;;;2.42;;
56255;SDS011;57229;51.432;-2.598;2023-12-22T06:02:20;7.45;;;2.05;;
56255;SDS011;57229;51.432;-2.598;2023-12-22T06:04:55;11.07;;;1.73;;
56255;SDS011;57229;51.432;-2.598;2023-12-22T06:07:21;14.53;;;2.17;;
56255;SDS011;57229;51.432;-2.598;2023-12-22T06:09:46;9.55;;;2.60;;
56255;SDS011;57229;51.432;-2.598;2023-12-22T06:12:12;13.55;;;3.00;;
56255;SDS011;57229;51.432;-2.598;2023-12-22T06:14:38;11.18;;;3.30;;
56255;SDS011;57229;51.432;-2.598;2023-12-22T06:17:04;20.65;;;3.10;;
56255;SDS011;57229;51.432;-2.598;2023-12-22T06:19:29;14.88;;;2.90;;
56255;SDS011;57229;51.432;-2.598;2023-12-22T06:21:57;14.52;;;2.88;;
56255;SDS011;57229;51.432;-2.598;2023-12-22T06:24:23;12.57;;;3.10;;
56255;SDS011;57229;51.432;-2.598;2023-12-22T06:26:49;15.45;;;2.80;;
56255;SDS011;57229;51.432;-2.598;2023-12-22T06:29:16;19.10;;;2.92;;
56255;SDS011;57229;51.432;-2.598;2023-12-22T06:31:42;13.88;;;2.47;;
56255;SDS011;57229;51.432;-2.598;2023-12-22T06:34:08;16.73;;;2.80;;
56255;SDS011;57229;51.432;-2.598;2023-12-22T06:36:33;21.58;;;2.50;;
56255;SDS011;57229;51.432;-2.598;2023-12-22T06:38:59;23.20;;;3.03;;
56255;SDS011;57229;51.432;-2.598;2023-12-22T06:41:34;17.90;;;2.92;;
56255;SDS011;57229;51.432;-2.598;2023-12-22T06:44:00;11.93;;;2.13;;
56255;SDS011;57229;51.432;-2.598;2023-12-22T06:46:26;15.27;;;2.50;;
56255;SDS011;57229;51.432;-2.598;2023-12-22T06:48:53;19.00;;;3.20;;
56255;SDS011;57229;51.432;-2.598;2023-12-22T06:51:21;12.63;;;3.33;;
56255;SDS011;57229;51.432;-2.598;2023-12-22T06:53:48;15.35;;;2.85;;
56255;SDS011;57229;51.432;-2.598;2023-12-22T06:56:17;18.13;;;3.53;;
56255;SDS011;57229;51.432;-2.598;2023-12-22T06:58:46;23.48;;;3.58;;
56255;SDS011;57229;51.432;-2.598;2023-12-22T07:03:46;13.77;;;2.80;;
56255;SDS011;57229;51.432;-2.598;2023-12-22T07:06:13;19.35;;;3.33;;
56255;SDS011;57229;51.432;-2.598;2023-12-22T07:08:42;18.02;;;3.20;;
56255;SDS011;57229;51.432;-2.598;2023-12-22T07:11:09;18.05;;;3.05;;
56255;SDS011;57229;51.432;-2.598;2023-12-22T07:13:36;22.73;;;3.35;;
56255;SDS011;57229;51.432;-2.598;2023-12-22T07:16:02;18.33;;;2.97;;
56255;SDS011;57229;51.432;-2.598;2023-12-22T07:18:37;18.67;;;2.88;;
56255;SDS011;57229;51.432;-2.598;2023-12-22T07:21:03;22.02;;;4.45;;
56255;SDS011;57229;51.432;-2.598;2023-12-22T07:23:30;20.38;;;3.20;;
56255;SDS011;57229;51.432;-2.598;2023-12-22T07:25:55;19.38;;;3.10;;
56255;SDS011;57229;51.432;-2.598;2023-12-22T07:28:21;24.67;;;3.33;;
56255;SDS011;57229;51.432;-2.598;2023-12-22T07:30:47;20.63;;;3.20;;
56255;SDS011;57229;51.432;-2.598;2023-12-22T07:33:12;13.90;;;2.55;;
56255;SDS011;57229;51.432;-2.598;2023-12-22T07:35:38;23.35;;;3.53;;
56255;SDS011;57229;51.432;-2.598;2023-12-22T07:38:04;16.25;;;2.63;;
56255;SDS011;57229;51.432;-2.598;2023-12-22T07:40:30;22.30;;;2.60;;
56255;SDS011;57229;51.432;-2.598;2023-12-22T07:42:56;23.10;;;3.10;;
56255;SDS011;57229;51.432;-2.598;2023-12-22T07:45:23;18.85;;;2.95;;
56255;SDS011;57229;51.432;-2.598;2023-12-22T07:47:49;21.98;;;2.70;;
56255;SDS011;57229;51.432;-2.598;2023-12-22T07:50:16;20.42;;;2.85;;
56255;SDS011;57229;51.432;-2.598;2023-12-22T07:52:41;9.45;;;2.03;;
56255;SDS011;57229;51.432;-2.598;2023-12-22T07:55:08;17.08;;;2.90;;
56255;SDS011;57229;51.432;-2.598;2023-12-22T07:57:35;17.17;;;3.67;;
56255;SDS011;57229;51.432;-2.598;2023-12-22T08:00:04;24.45;;;3.80;;
56255;SDS011;57229;51.432;-2.598;2023-12-22T08:02:32;19.98;;;3.03;;
56255;SDS011;57229;51.432;-2.598;2023-12-22T08:04:58;17.42;;;2.45;;
56255;SDS011;57229;51.432;-2.598;2023-12-22T08:07:26;14.77;;;2.90;;
56255;SDS011;57229;51.432;-2.598;2023-12-22T08:09:52;22.83;;;3.05;;
56255;SDS011;57229;51.432;-2.598;2023-12-22T08:12:17;20.52;;;2.58;;
56255;SDS011;57229;51.432;-2.598;2023-12-22T08:14:43;16.40;;;3.35;;
56255;SDS011;57229;51.432;-2.598;2023-12-22T08:17:09;18.15;;;3.08;;
56255;SDS011;57229;51.432;-2.598;2023-12-22T08:19:36;19.90;;;2.67;;
56255;SDS011;57229;51.432;-2.598;2023-12-22T08:22:02;20.08;;;3.10;;
56255;SDS011;57229;51.432;-2.598;2023-12-22T08:24:28;17.25;;;3.35;;
56255;SDS011;57229;51.432;-2.598;2023-12-22T08:26:53;18.25;;;3.33;;
56255;SDS011;57229;51.432;-2.598;2023-12-22T08:29:19;22.23;;;3.20;;
56255;SDS011;57229;51.432;-2.598;2023-12-22T08:31:45;20.20;;;3.28;;
56255;SDS011;57229;51.432;-2.598;2023-12-22T08:34:13;14.40;;;3.10;;
56255;SDS011;57229;51.432;-2.598;2023-12-22T08:36:41;22.10;;;3.35;;
56255;SDS011;57229;51.432;-2.598;2023-12-22T08:39:10;17.40;;;2.53;;
56255;SDS011;57229;51.432;-2.598;2023-12-22T08:41:36;21.23;;;3.75;;
56255;SDS011;57229;51.432;-2.598;2023-12-22T08:44:02;17.00;;;3.38;;
56255;SDS011;57229;51.432;-2.598;2023-12-22T08:46:29;21.20;;;3.33;;
56255;SDS011;57229;51.432;-2.598;2023-12-22T08:48:56;18.65;;;3.40;;
56255;SDS011;57229;51.432;-2.598;2023-12-22T08:51:28;20.27;;;2.80;;
56255;SDS011;57229;51.432;-2.598;2023-12-22T08:53:54;15.38;;;2.50;;
56255;SDS011;57229;51.432;-2.598;2023-12-22T08:56:23;21.60;;;2.63;;
56255;SDS011;57229;51.432;-2.598;2023-12-22T08:58:53;19.63;;;2.55;;
56255;SDS011;57229;51.432;-2.598;2023-12-22T09:01:24;20.95;;;3.38;;
56255;SDS011;57229;51.432;-2.598;2023-12-22T09:03:50;10.55;;;2.35;;
56255;SDS011;57229;51.432;-2.598;2023-12-22T09:08:42;21.27;;;2.78;;
56255;SDS011;57229;51.432;-2.598;2023-12-22T09:11:10;26.38;;;3.25;;
56255;SDS011;57229;51.432;-2.598;2023-12-22T09:13:36;22.83;;;3.47;;
56255;SDS011;57229;51.432;-2.598;2023-12-22T09:16:02;22.20;;;3.17;;
56255;SDS011;57229;51.432;-2.598;2023-12-22T09:18:28;18.75;;;2.92;;
56255;SDS011;57229;51.432;-2.598;2023-12-22T09:20:54;14.10;;;2.45;;
56255;SDS011;57229;51.432;-2.598;2023-12-22T09:23:19;19.42;;;2.90;;
56255;SDS011;57229;51.432;-2.598;2023-12-22T09:25:46;13.68;;;2.80;;
56255;SDS011;57229;51.432;-2.598;2023-12-22T09:28:12;15.82;;;2.88;;
56255;SDS011;57229;51.432;-2.598;2023-12-22T09:30:37;19.02;;;3.13;;
56255;SDS011;57229;51.432;-2.598;2023-12-22T09:33:03;18.58;;;2.22;;
56255;SDS011;57229;51.432;-2.598;2023-12-22T09:35:29;16.15;;;2.55;;
56255;SDS011;57229;51.432;-2.598;2023-12-22T09:37:54;13.68;;;2.42;;
56255;SDS011;57229;51.432;-2.598;2023-12-22T09:40:20;22.92;;;3.22;;
56255;SDS011;57229;51.432;-2.598;2023-12-22T09:42:49;28.38;;;3.13;;
56255;SDS011;57229;51.432;-2.598;2023-12-22T09:45:21;17.30;;;3.13;;
56255;SDS011;57229;51.432;-2.598;2023-12-22T09:47:50;19.30;;;2.55;;
56255;SDS011;57229;51.432;-2.598;2023-12-22T09:50:16;17.88;;;3.03;;
56255;SDS011;57229;51.432;-2.598;2023-12-22T09:52:45;20.52;;;2.72;;
56255;SDS011;57229;51.432;-2.598;2023-12-22T09:55:14;16.02;;;2.80;;
56255;SDS011;57229;51.432;-2.598;2023-12-22T09:57:40;17.88;;;3.03;;
56255;SDS011;57229;51.432;-2.598;2023-12-22T10:00:08;18.10;;;2.78;;
56255;SDS011;57229;51.432;-2.598;2023-12-22T10:02:35;19.67;;;3.25;;
56255;SDS011;57229;51.432;-2.598;2023-12-22T10:05:02;21.67;;;2.80;;
56255;SDS011;57229;51.432;-2.598;2023-12-22T10:07:28;16.17;;;2.38;;
56255;SDS011;57229;51.432;-2.598;2023-12-22T10:09:55;24.73;;;3.28;;
56255;SDS011;57229;51.432;-2.598;2023-12-22T10:12:22;16.30;;;2.40;;
56255;SDS011;57229;51.432;-2.598;2023-12-22T10:14:49;21.40;;;3.03;;
56255;SDS011;57229;51.432;-2.598;2023-12-22T10:17:15;25.15;;;2.95;;
56255;SDS011;57229;51.432;-2.598;2023-12-22T10:19:42;18.98;;;2.90;;
56255;SDS011;57229;51.432;-2.598;2023-12-22T10:22:07;20.30;;;3.53;;
56255;SDS011;57229;51.432;-2.598;2023-12-22T10:24:40;21.90;;;3.67;;
56255;SDS011;57229;51.432;-2.598;2023-12-22T10:27:12;16.73;;;2.45;;
56255;SDS011;57229;51.432;-2.598;2023-12-22T10:29:49;18.58;;;3.03;;
56255;SDS011;57229;51.432;-2.598;2023-12-22T10:32:16;19.00;;;3.08;;
56255;SDS011;57229;51.432;-2.598;2023-12-22T10:34:42;16.63;;;2.55;;
56255;SDS011;57229;51.432;-2.598;2023-12-22T10:37:10;19.48;;;3.00;;
56255;SDS011;57229;51.432;-2.598;2023-12-22T10:39:38;19.40;;;3.70;;
56255;SDS011;57229;51.432;-2.598;2023-12-22T10:42:22;13.43;;;2.97;;
56255;SDS011;57229;51.432;-2.598;2023-12-22T10:44:47;22.70;;;3.53;;
56255;SDS011;57229;51.432;-2.598;2023-12-22T10:47:14;17.45;;;3.22;;
56255;SDS011;57229;51.432;-2.598;2023-12-22T10:49:40;19.98;;;2.70;;
56255;SDS011;57229;51.432;-2.598;2023-12-22T10:52:06;17.17;;;3.03;;
56255;SDS011;57229;51.432;-2.598;2023-12-22T10:54:40;19.05;;;2.88;;
56255;SDS011;57229;51.432;-2.598;2023-12-22T10:57:06;21.58;;;3.78;;
56255;SDS011;57229;51.432;-2.598;2023-12-22T10:59:31;18.40;;;2.58;;
56255;SDS011;57229;51.432;-2.598;2023-12-22T11:02:03;23.98;;;3.22;;
56255;SDS011;57229;51.432;-2.598;2023-12-22T11:04:32;18.42;;;2.67;;
56255;SDS011;57229;51.432;-2.598;2023-12-22T11:07:03;18.30;;;3.17;;
56255;SDS011;57229;51.432;-2.598;2023-12-22T11:09:33;12.65;;;2.42;;
56255;SDS011;57229;51.432;-2.598;2023-12-22T11:12:00;15.90;;;2.35;;
56255;SDS011;57229;51.432;-2.598;2023-12-22T11:14:27;14.35;;;2.40;;
56255;SDS011;57229;51.432;-2.598;2023-12-22T11:16:56;16.02;;;2.58;;
56255;SDS011;57229;51.432;-2.598;2023-12-22T11:19:24;18.90;;;3.60;;
56255;SDS011;57229;51.432;-2.598;2023-12-22T11:21:51;14.15;;;2.25;;
56255;SDS011;57229;51.432;-2.598;2023-12-22T11:24:19;11.57;;;2.33;;
56255;SDS011;57229;51.432;-2.598;2023-12-22T11:26:46;12.38;;;2.60;;
56255;SDS011;57229;51.432;-2.598;2023-12-22T11:29:14;14.23;;;2.83;;
56255;SDS011;57229;51.432;-2.598;2023-12-22T11:31:43;7.68;;;1.85;;
56255;SDS011;57229;51.432;-2.598;2023-12-22T11:34:10;17.48;;;2.85;;
56255;SDS011;57229;51.432;-2.598;2023-12-22T11:36:37;15.05;;;2.67;;
56255;SDS011;57229;51.432;-2.598;2023-12-22T11:39:03;11.38;;;2.47;;
56255;SDS011;57229;51.432;-2.598;2023-12-22T11:41:30;14.93;;;2.50;;
56255;SDS011;57229;51.432;-2.598;2023-12-22T11:44:00;16.35;;;2.28;;
56255;SDS011;57229;51.432;-2.598;2023-12-22T11:46:28;13.60;;;2.50;;
56255;SDS011;57229;51.432;-2.598;2023-12-22T11:48:55;11.60;;;1.95;;
56255;SDS011;57229;51.432;-2.598;2023-12-22T11:51:21;12.93;;;1.95;;
56255;SDS011;57229;51.432;-2.598;2023-12-22T11:53:47;17.15;;;2.50;;
56255;SDS011;57229;51.432;-2.598;2023-12-22T11:56:13;14.25;;;2.28;;
56255;SDS011;57229;51.432;-2.598;2023-12-22T12:01:18;20.80;;;2.50;;
56255;SDS011;57229;51.432;-2.598;2023-12-22T12:09:06;10.15;;;2.38;;
56255;SDS011;57229;51.432;-2.598;2023-12-22T12:14:21;10.00;;;1.92;;
56255;SDS011;57229;51.432;-2.598;2023-12-22T12:16:48;15.52;;;2.42;;
56255;SDS011;57229;51.432;-2.598;2023-12-22T12:19:14;12.63;;;3.00;;
56255;SDS011;57229;51.432;-2.598;2023-12-22T12:21:40;17.75;;;2.72;;
56255;SDS011;57229;51.432;-2.598;2023-12-22T12:24:05;10.77;;;2.72;;
56255;SDS011;57229;51.432;-2.598;2023-12-22T12:26:34;13.32;;;2.17;;
56255;SDS011;57229;51.432;-2.598;2023-12-22T12:29:01;14.77;;;2.20;;
56255;SDS011;57229;51.432;-2.598;2023-12-22T12:31:37;11.20;;;2.75;;
56255;SDS011;57229;51.432;-2.598;2023-12-22T12:34:04;15.88;;;2.60;;
56255;SDS011;57229;51.432;-2.598;2023-12-22T12:36:30;17.27;;;2.70;;
56255;SDS011;57229;51.432;-2.598;2023-12-22T12:39:06;13.13;;;3.20;;
56255;SDS011;57229;51.432;-2.598;2023-12-22T12:41:33;12.00;;;2.55;;
56255;SDS011;57229;51.432;-2.598;2023-12-22T12:44:03;12.88;;;2.38;;
56255;SDS011;57229;51.432;-2.598;2023-12-22T12:46:34;17.75;;;2.83;;
56255;SDS011;57229;51.432;-2.598;2023-12-22T12:49:08;13.38;;;2.63;;
56255;SDS011;57229;51.432;-2.598;2023-12-22T12:51:43;20.45;;;3.42;;
56255;SDS011;57229;51.432;-2.598;2023-12-22T12:54:10;14.85;;;2.95;;
56255;SDS011;57229;51.432;-2.598;2023-12-22T12:56:40;14.23;;;3.22;;
56255;SDS011;57229;51.432;-2.598;2023-12-22T12:59:10;13.85;;;3.17;;
56255;SDS011;57229;51.432;-2.598;2023-12-22T13:04:09;12.68;;;3.33;;
56255;SDS011;57229;51.432;-2.598;2023-12-22T13:06:47;8.55;;;2.83;;
56255;SDS011;57229;51.432;-2.598;2023-12-22T13:09:16;14.85;;;1.92;;
56255;SDS011;57229;51.432;-2.598;2023-12-22T13:11:43;8.02;;;1.88;;
56255;SDS011;57229;51.432;-2.598;2023-12-22T13:14:11;11.20;;;2.45;;
56255;SDS011;57229;51.432;-2.598;2023-12-22T13:16:47;9.80;;;2.40;;
56255;SDS011;57229;51.432;-2.598;2023-12-22T13:19:13;17.20;;;2.58;;
56255;SDS011;57229;51.432;-2.598;2023-12-22T13:21:39;17.60;;;2.75;;
56255;SDS011;57229;51.432;-2.598;2023-12-22T13:24:14;8.93;;;2.08;;
56255;SDS011;57229;51.432;-2.598;2023-12-22T13:26:41;14.93;;;2.95;;
56255;SDS011;57229;51.432;-2.598;2023-12-22T13:29:08;11.50;;;2.58;;
56255;SDS011;57229;51.432;-2.598;2023-12-22T13:31:38;16.70;;;2.47;;
56255;SDS011;57229;51.432;-2.598;2023-12-22T13:34:12;13.48;;;2.03;;
56255;SDS011;57229;51.432;-2.598;2023-12-22T13:36:38;11.55;;;1.92;;
56255;SDS011;57229;51.432;-2.598;2023-12-22T13:39:05;15.90;;;2.60;;
56255;SDS011;57229;51.432;-2.598;2023-12-22T13:41:35;12.40;;;2.42;;
56255;SDS011;57229;51.432;-2.598;2023-12-22T13:44:05;12.65;;;2.17;;
56255;SDS011;57229;51.432;-2.598;2023-12-22T13:46:31;13.50;;;2.10;;
56255;SDS011;57229;51.432;-2.598;2023-12-22T13:49:00;9.38;;;1.63;;
56255;SDS011;57229;51.432;-2.598;2023-12-22T13:51:26;13.57;;;2.15;;
56255;SDS011;57229;51.432;-2.598;2023-12-22T13:53:52;11.60;;;2.10;;
56255;SDS011;57229;51.432;-2.598;2023-12-22T13:56:18;9.32;;;2.17;;
56255;SDS011;57229;51.432;-2.598;2023-12-22T13:58:47;6.85;;;1.75;;
56255;SDS011;57229;51.432;-2.598;2023-12-22T14:01:13;12.93;;;2.15;;
56255;SDS011;57229;51.432;-2.598;2023-12-22T14:03:43;12.75;;;3.35;;
56255;SDS011;57229;51.432;-2.598;2023-12-22T14:06:12;9.27;;;1.98;;
56255;SDS011;57229;51.432;-2.598;2023-12-22T14:08:40;6.65;;;1.58;;
56255;SDS011;57229;51.432;-2.598;2023-12-22T14:11:07;10.40;;;1.90;;
56255;SDS011;57229;51.432;-2.598;2023-12-22T14:13:33;13.02;;;2.25;;
56255;SDS011;57229;51.432;-2.598;2023-12-22T14:16:03;12.52;;;2.08;;
56255;SDS011;57229;51.432;-2.598;2023-12-22T14:18:29;12.95;;;1.90;;
56255;SDS011;57229;51.432;-2.598;2023-12-22T14:20:54;12.20;;;2.47;;
56255;SDS011;57229;51.432;-2.598;2023-12-22T14:23:20;13.32;;;2.42;;
56255;SDS011;57229;51.432;-2.598;2023-12-22T14:25:46;6.60;;;1.70;;
56255;SDS011;57229;51.432;-2.598;2023-12-22T14:28:13;7.15;;;1.95;;
56255;SDS011;57229;51.432;-2.598;2023-12-22T14:30:38;9.20;;;1.85;;
56255;SDS011;57229;51.432;-2.598;2023-12-22T14:33:04;6.80;;;1.40;;
56255;SDS011;57229;51.432;-2.598;2023-12-22T14:35:29;2.72;;;1.27;;
56255;SDS011;57229;51.432;-2.598;2023-12-22T14:37:55;7.60;;;1.48;;
56255;SDS011;57229;51.432;-2.598;2023-12-22T14:40:20;8.20;;;1.85;;
56255;SDS011;57229;51.432;-2.598;2023-12-22T14:42:46;9.70;;;1.58;;
56255;SDS011;57229;51.432;-2.598;2023-12-22T14:45:12;7.28;;;1.45;;
56255;SDS011;57229;51.432;-2.598;2023-12-22T14:47:37;5.95;;;1.25;;